Catacamas, Honduras

5:26 PM CST on September 03, 2015 (GMT -0600)
Catacamas | | Change Station
CLOSE
Current Station
Airport
Location: Catacamas,
Elevation: 453 ft
Nearby Weather Stations

Elev 453 ft 14.87 °N, 85.77 °W | Updated 26 minutes ago

Mostly Cloudy
Mostly Cloudy
79 °F
Feels Like 79 °F
N
2
Wind Variable Wind from ENE

Today
High -- | Low -- °F
--% Chance of Precip.
Yesterday
High -- | Low -- °F
Precip. -- in
5:31 AM 5:54 PM
Waning Gibbous, 66% visible
Pressure 29.92 in
Visibility 6.2 miles
Clouds Scattered Clouds 2800 ft
Mostly Cloudy 7000 ft
Dew Point 73 °F
Humidity 83%
Rainfall 0.00 in
Snow Depth Not available.
UV 1 out of 12
Pollen Not available.
Air Quality Not available.
Flu Activity Not available.
METAR MHCA 032300Z 07002KT 9999 SCT028TCU BKN070 26/23 Q1013 TCU ALL
Pressure 29.92 in
Visibility 6.2 miles
Clouds Scattered Clouds 2800 ft
Mostly Cloudy 7000 ft
Dew Point 73 °F
Humidity 83%
Rainfall 0.00 in
Snow Depth Not available.
UV 1 out of 12
Pollen Not available.
Air Quality Not available.
Flu Activity Not available.
METAR MHCA 032300Z 07002KT 9999 SCT028TCU BKN070 26/23 Q1013 TCU ALL

10-Day Weather Forecast

×

Almanac

Astronomy

Sep. 03, 2015 Rise Set
Actual Time
Civil Twilight
Nautical Twilight
Astronomical Twilight
Moon
Length of Visible Light
Length of Day
Tomorrow will be .
, % of the Moon is Illuminated

Today's Extremes

Country Highs Country Lows

Community

WunderPhotos

Upload Photos

1,852,060 photos uploaded!

WunderBlogs® & News

Nearby

Air Quality

  Air Quality AQ Index Pollutant
Not available.

Snow Depth

Station Depth Elevation

Earthquake Activity

City Distance Mag. Time & Date
Minimum magnitude displayed is 2.5.

Coastal Water Temperatures

Place Temperature

Stations

Nearby Weather Stations

Station Location Temp. Windchill Dew Point Humidity Wind Precip. Elev Updated Type